^^
Datos históricos de la estación: Murcia-Puente Tocinos
Diario Informe para Enero 17, 2019 Unidades:  Métrico    Inglés   Ambas
Diario Semanal Mensual Anual Configurable
  Máximo: Mínimo: Media:
Temperatura: 14.7 °C 8.8 °C 11.3 °C
Punto de rocio: 7.9 °C 2.8 °C 4.1 °C
Humedad: 86% 47% 62%
Velocidad viento: 15.6km/h 0.0km/h 8.1km/h
Racha viento: 29.0km/h - -
Viento- - SW
Presión: 1017.7 hPa 1014.3 hPa -
Precipitación: 0.0 mm    
Historical Graphs
 
 
Tabla de datos para Enero 17, 2019
Hora Temperatura Punto de rocio Presión Viento Velocidad viento Racha viento Humedad Intensidad lluvia(por hora) Nubes
00:00 10.2 °C 7.9 °C 1016.3 hPa WSW 8.0 km/h 12.9 km/h 86% 0.0 mm CLR
00:05 10.2 °C 7.8 °C 1016.3 hPa WSW 8.4 km/h 9.3 km/h 85% 0.0 mm CLR
00:10 10.1 °C 7.7 °C 1016.3 hPa West 7.6 km/h 7.4 km/h 85% 0.0 mm CLR
00:15 10.1 °C 7.7 °C 1016.3 hPa SSW 7.6 km/h 7.4 km/h 85% 0.0 mm CLR
00:20 10.0 °C 7.4 °C 1016.2 hPa SSW 5.8 km/h 9.3 km/h 84% 0.0 mm CLR
00:25 10.0 °C 7.2 °C 1016.2 hPa SW 5.8 km/h 7.6 km/h 83% 0.0 mm CLR
00:30 9.9 °C 6.9 °C 1016.2 hPa SW 6.9 km/h 8.4 km/h 82% 0.0 mm CLR
00:35 9.9 °C 6.8 °C 1016.1 hPa South 6.9 km/h 11.1 km/h 81% 0.0 mm CLR
00:40 9.9 °C 6.8 °C 1016.1 hPa SSW 8.0 km/h 11.3 km/h 81% 0.0 mm CLR
00:45 9.9 °C 6.6 °C 1016.1 hPa SW 7.6 km/h 9.3 km/h 80% 0.0 mm CLR
00:50 10.0 °C 6.5 °C 1016.1 hPa SSW 6.9 km/h 11.1 km/h 79% 0.0 mm CLR
00:55 10.1 °C 6.4 °C 1016.1 hPa SW 6.9 km/h 13.0 km/h 78% 0.0 mm CLR
01:00 10.2 °C 6.5 °C 1016.1 hPa SW 9.7 km/h 12.9 km/h 78% 0.0 mm CLR
01:05 10.1 °C 6.2 °C 1015.9 hPa SW 8.7 km/h 9.5 km/h 77% 0.0 mm CLR
01:10 10.1 °C 6.2 °C 1015.9 hPa SW 8.0 km/h 9.7 km/h 77% 0.0 mm CLR
01:15 10.0 °C 6.2 °C 1015.9 hPa SW 7.6 km/h 3.9 km/h 77% 0.0 mm CLR
01:20 9.9 °C 6.1 °C 1015.9 hPa SW 3.9 km/h 10.0 km/h 77% 0.0 mm CLR
01:24 9.9 °C 6.1 °C 1015.9 hPa SSW 3.9 km/h 9.3 km/h 77% 0.0 mm CLR
01:30 9.9 °C 6.1 °C 1015.9 hPa SW 5.8 km/h 11.1 km/h 77% 0.0 mm CLR
01:35 9.8 °C 5.8 °C 1015.7 hPa SSW 5.8 km/h 9.3 km/h 76% 0.0 mm CLR
01:40 9.8 °C 5.8 °C 1015.7 hPa SW 6.4 km/h 7.4 km/h 76% 0.0 mm CLR
01:45 9.8 °C 5.8 °C 1015.7 hPa SW 6.4 km/h 9.3 km/h 76% 0.0 mm CLR
01:50 9.7 °C 5.5 °C 1015.7 hPa SW 6.9 km/h 9.3 km/h 75% 0.0 mm CLR
01:55 9.8 °C 5.6 °C 1015.7 hPa SSW 6.9 km/h 9.3 km/h 75% 0.0 mm CLR
02:00 9.8 °C 5.4 °C 1015.7 hPa SW 8.0 km/h 9.7 km/h 74% 0.0 mm CLR
02:05 9.8 °C 5.4 °C 1015.6 hPa SW 6.9 km/h 7.4 km/h 74% 0.0 mm CLR
02:10 9.8 °C 5.4 °C 1015.6 hPa SW 4.8 km/h 9.7 km/h 74% 0.0 mm CLR
02:15 9.8 °C 5.2 °C 1015.6 hPa SW 5.8 km/h 11.1 km/h 73% 0.0 mm CLR
02:20 9.7 °C 5.1 °C 1015.6 hPa SW 8.4 km/h 11.9 km/h 73% 0.0 mm CLR
02:25 9.7 °C 5.1 °C 1015.6 hPa SSW 8.4 km/h 11.1 km/h 73% 0.0 mm CLR
02:30 9.6 °C 5.0 °C 1015.6 hPa SSW 7.6 km/h 9.3 km/h 73% 0.0 mm CLR
02:35 9.5 °C 4.9 °C 1015.5 hPa SW 7.6 km/h 11.1 km/h 73% 0.0 mm CLR
02:40 9.5 °C 4.9 °C 1015.5 hPa SSW 8.4 km/h 11.1 km/h 73% 0.0 mm CLR
02:45 9.6 °C 5.0 °C 1015.5 hPa SSW 8.4 km/h 9.5 km/h 73% 0.0 mm CLR
02:50 9.6 °C 5.0 °C 1015.5 hPa SW 8.4 km/h 7.4 km/h 73% 0.0 mm CLR
02:55 9.6 °C 4.8 °C 1015.5 hPa SW 8.4 km/h 9.3 km/h 72% 0.0 mm CLR
03:00 9.5 °C 4.7 °C 1015.5 hPa SSW 8.0 km/h 14.5 km/h 72% 0.0 mm CLR
03:05 9.5 °C 4.7 °C 1015.6 hPa SSW 7.6 km/h 11.1 km/h 72% 0.0 mm CLR
03:10 9.6 °C 4.8 °C 1015.6 hPa SW 8.4 km/h 11.1 km/h 72% 0.0 mm CLR
03:15 9.6 °C 4.8 °C 1015.6 hPa SSW 8.4 km/h 11.1 km/h 72% 0.0 mm CLR
03:20 9.5 °C 4.5 °C 1015.6 hPa SSW 8.7 km/h 14.8 km/h 71% 0.0 mm CLR
03:25 9.4 °C 4.6 °C 1015.6 hPa SW 9.7 km/h 14.5 km/h 72% 0.0 mm CLR
03:30 9.4 °C 4.6 °C 1015.6 hPa SW 8.7 km/h 9.3 km/h 72% 0.0 mm CLR
03:35 9.3 °C 4.5 °C 1015.5 hPa SSW 8.7 km/h 14.8 km/h 72% 0.0 mm CLR
03:40 9.2 °C 4.4 °C 1015.5 hPa South 8.7 km/h 13.0 km/h 72% 0.0 mm CLR
03:45 9.1 °C 4.3 °C 1015.5 hPa South 8.7 km/h 13.0 km/h 72% 0.0 mm CLR
03:50 9.0 °C 4.4 °C 1015.4 hPa South 8.7 km/h 14.8 km/h 73% 0.0 mm CLR
03:55 9.0 °C 4.4 °C 1015.4 hPa SSW 8.7 km/h 14.8 km/h 73% 0.0 mm CLR
04:00 8.9 °C 4.3 °C 1015.4 hPa South 9.7 km/h 14.5 km/h 73% 0.0 mm CLR
04:05 9.0 °C 4.4 °C 1015.4 hPa SSW 10.0 km/h 16.7 km/h 73% 0.0 mm CLR
04:10 9.0 °C 4.2 °C 1015.4 hPa SSW 10.3 km/h 13.7 km/h 72% 0.0 mm CLR
04:15 8.9 °C 4.1 °C 1015.4 hPa South 10.3 km/h 14.8 km/h 72% 0.0 mm CLR
04:20 9.0 °C 4.2 °C 1015.4 hPa SSW 11.3 km/h 12.9 km/h 72% 0.0 mm CLR
04:25 9.1 °C 4.3 °C 1015.4 hPa SSW 10.3 km/h 11.1 km/h 72% 0.0 mm CLR
04:30 9.1 °C 4.1 °C 1015.4 hPa SSW 8.0 km/h 14.5 km/h 71% 0.0 mm CLR
04:35 9.1 °C 4.1 °C 1015.3 hPa SSW 7.6 km/h 9.3 km/h 71% 0.0 mm CLR
04:40 9.2 °C 4.2 °C 1015.3 hPa SW 6.4 km/h 8.4 km/h 71% 0.0 mm CLR
04:45 9.2 °C 4.2 °C 1015.3 hPa South 6.4 km/h 7.4 km/h 71% 0.0 mm CLR
04:50 9.2 °C 4.2 °C 1015.2 hPa South 4.7 km/h 7.4 km/h 71% 0.0 mm FEW
04:55 9.2 °C 4.2 °C 1015.2 hPa SSW 4.7 km/h 7.4 km/h 71% 0.0 mm FEW
05:00 9.2 °C 4.2 °C 1015.2 hPa SSW 4.8 km/h 9.7 km/h 71% 0.0 mm FEW
05:05 9.2 °C 4.0 °C 1015.1 hPa SSW 5.0 km/h 10.0 km/h 70% 0.0 mm FEW
05:10 9.2 °C 4.0 °C 1015.1 hPa SSW 5.0 km/h 11.1 km/h 70% 0.0 mm FEW
05:15 9.1 °C 3.9 °C 1015.1 hPa SSW 5.0 km/h 13.0 km/h 70% 0.0 mm FEW
05:20 9.1 °C 3.9 °C 1015.0 hPa SSW 9.7 km/h 12.9 km/h 70% 0.0 mm CLR
05:25 9.0 °C 3.8 °C 1015.0 hPa SSW 8.7 km/h 11.9 km/h 70% 0.0 mm CLR
05:30 9.0 °C 3.8 °C 1015.0 hPa SSW 8.7 km/h 11.1 km/h 70% 0.0 mm CLR
05:35 9.0 °C 3.8 °C 1014.9 hPa SSW 9.7 km/h 14.5 km/h 70% 0.0 mm CLR
05:40 9.1 °C 3.9 °C 1014.9 hPa SSW 8.7 km/h 11.1 km/h 70% 0.0 mm CLR
05:45 9.1 °C 3.9 °C 1014.9 hPa SW 8.7 km/h 13.0 km/h 70% 0.0 mm CLR
05:50 9.1 °C 3.9 °C 1014.9 hPa SSW 8.7 km/h 9.3 km/h 70% 0.0 mm CLR
05:55 9.1 °C 3.9 °C 1014.9 hPa SW 8.7 km/h 9.3 km/h 70% 0.0 mm CLR
06:00 9.1 °C 3.9 °C 1014.9 hPa SW 8.0 km/h 9.7 km/h 70% 0.0 mm CLR
06:05 8.9 °C 3.7 °C 1014.9 hPa WSW 6.4 km/h 6.9 km/h 70% 0.0 mm CLR
06:10 8.8 °C 3.8 °C 1014.9 hPa WNW 3.2 km/h 9.7 km/h 71% 0.0 mm CLR
06:15 8.9 °C 3.9 °C 1014.9 hPa SW 3.2 km/h 5.6 km/h 71% 0.0 mm CLR
06:20 8.9 °C 3.7 °C 1014.9 hPa SSW 4.7 km/h 9.3 km/h 70% 0.0 mm CLR
06:25 9.0 °C 3.8 °C 1014.9 hPa SW 4.7 km/h 8.4 km/h 70% 0.0 mm CLR
06:30 9.1 °C 3.7 °C 1014.9 hPa SW 4.8 km/h 9.7 km/h 69% 0.0 mm CLR
06:35 9.3 °C 3.7 °C 1014.9 hPa SW 5.0 km/h 7.4 km/h 68% 0.0 mm CLR
06:40 9.4 °C 3.8 °C 1014.9 hPa SW 5.8 km/h 9.3 km/h 68% 0.0 mm CLR
06:45 9.4 °C 3.8 °C 1014.9 hPa SW 5.8 km/h 7.4 km/h 68% 0.0 mm CLR
06:50 9.4 °C 3.8 °C 1015.1 hPa SW 6.4 km/h 11.1 km/h 68% 0.0 mm CLR
06:55 9.5 °C 3.7 °C 1015.1 hPa SW 6.4 km/h 14.8 km/h 67% 0.0 mm CLR
07:00 9.5 °C 3.7 °C 1015.1 hPa SSW 8.0 km/h 12.9 km/h 67% 0.0 mm CLR
07:05 9.5 °C 3.7 °C 1015.1 hPa SW 8.4 km/h 9.3 km/h 67% 0.0 mm CLR
07:10 9.5 °C 3.7 °C 1015.1 hPa SW 7.6 km/h 11.1 km/h 67% 0.0 mm CLR
07:15 9.5 °C 3.7 °C 1015.1 hPa SSW 7.6 km/h 13.0 km/h 67% 0.0 mm CLR
07:20 9.5 °C 3.7 °C 1015.2 hPa SSW 9.7 km/h 14.5 km/h 67% 0.0 mm CLR
07:25 9.4 °C 3.6 °C 1015.2 hPa South 9.5 km/h 14.8 km/h 67% 0.0 mm CLR
07:30 9.4 °C 3.6 °C 1015.2 hPa SSW 9.7 km/h 12.9 km/h 67% 0.0 mm CLR
07:35 9.3 °C 3.7 °C 1015.2 hPa SW 8.7 km/h 13.0 km/h 68% 0.0 mm CLR
07:40 9.3 °C 3.7 °C 1015.2 hPa South 9.5 km/h 11.1 km/h 68% 0.0 mm CLR
07:45 9.3 °C 3.5 °C 1015.2 hPa SSW 9.5 km/h 11.1 km/h 67% 0.0 mm CLR
07:50 9.3 °C 3.5 °C 1015.4 hPa SSW 8.7 km/h 13.0 km/h 67% 0.0 mm CLR
07:55 9.3 °C 3.5 °C 1015.4 hPa SSW 8.7 km/h 14.8 km/h 67% 0.0 mm CLR
08:00 9.3 °C 3.5 °C 1015.4 hPa SSW 9.7 km/h 16.1 km/h 67% 0.0 mm CLR
08:05 9.3 °C 3.5 °C 1015.5 hPa SW 9.5 km/h 14.8 km/h 67% 0.0 mm CLR
08:10 9.3 °C 3.5 °C 1015.5 hPa South 10.3 km/h 18.5 km/h 67% 0.0 mm CLR
08:15 9.3 °C 3.5 °C 1015.5 hPa South 10.3 km/h 14.8 km/h 67% 0.0 mm CLR
08:20 9.3 °C 3.5 °C 1015.5 hPa SW 10.0 km/h 9.3 km/h 67% 0.0 mm CLR
08:25 9.3 °C 3.5 °C 1015.5 hPa SW 10.0 km/h 18.5 km/h 67% 0.0 mm CLR
08:30 9.3 °C 3.5 °C 1015.5 hPa SSW 9.7 km/h 16.1 km/h 67% 0.0 mm CLR
08:35 9.3 °C 3.5 °C 1015.6 hPa SW 10.0 km/h 13.0 km/h 67% 0.0 mm CLR
08:40 9.3 °C 3.5 °C 1015.6 hPa SW 10.3 km/h 11.1 km/h 67% 0.0 mm CLR
08:45 9.2 °C 3.4 °C 1015.6 hPa SW 10.3 km/h 11.1 km/h 67% 0.0 mm CLR
08:50 9.2 °C 3.4 °C 1015.7 hPa SSW 8.4 km/h 13.0 km/h 67% 0.0 mm FEW
08:55 9.2 °C 3.4 °C 1015.7 hPa SSW 8.4 km/h 9.3 km/h 67% 0.0 mm FEW
09:00 9.2 °C 3.4 °C 1015.7 hPa SSW 9.7 km/h 16.1 km/h 67% 0.0 mm FEW
09:05 9.2 °C 3.4 °C 1015.7 hPa SSW 8.7 km/h 16.7 km/h 67% 0.0 mm FEW
09:10 9.2 °C 3.4 °C 1015.7 hPa WSW 10.0 km/h 13.0 km/h 67% 0.0 mm FEW
09:15 9.3 °C 3.5 °C 1015.7 hPa SW 10.0 km/h 18.5 km/h 67% 0.0 mm FEW
09:20 9.3 °C 3.5 °C 1015.8 hPa WSW 11.9 km/h 18.5 km/h 67% 0.0 mm CLR
09:25 9.3 °C 3.5 °C 1015.8 hPa WSW 11.9 km/h 18.5 km/h 67% 0.0 mm CLR
09:30 9.3 °C 3.5 °C 1015.8 hPa SSW 12.2 km/h 18.5 km/h 67% 0.0 mm CLR
09:35 9.3 °C 3.5 °C 1016.1 hPa SW 12.2 km/h 20.4 km/h 67% 0.0 mm CLR
09:40 9.3 °C 3.4 °C 1016.1 hPa SW 12.9 km/h 20.9 km/h 67% 0.0 mm CLR
09:45 9.2 °C 3.4 °C 1016.1 hPa SSW 12.2 km/h 20.1 km/h 67% 0.0 mm CLR
09:50 9.2 °C 3.4 °C 1016.2 hPa SSW 11.9 km/h 14.8 km/h 67% 0.0 mm CLR
09:55 9.3 °C 3.5 °C 1016.2 hPa SW 11.9 km/h 14.8 km/h 67% 0.0 mm CLR
10:00 9.3 °C 3.6 °C 1016.2 hPa SW 11.3 km/h 19.3 km/h 67% 0.0 mm CLR
10:05 9.4 °C 3.4 °C 1016.4 hPa SSW 11.1 km/h 22.2 km/h 66% 0.0 mm CLR
10:10 9.6 °C 3.6 °C 1016.4 hPa SSW 11.9 km/h 14.8 km/h 66% 0.0 mm CLR
10:15 9.7 °C 3.7 °C 1016.4 hPa SSW 11.9 km/h 16.4 km/h 66% 0.0 mm CLR
10:20 9.8 °C 3.5 °C 1016.5 hPa SSW 11.3 km/h 24.1 km/h 65% 0.0 mm FEW
10:25 9.9 °C 3.6 °C 1016.5 hPa SSW 11.1 km/h 20.4 km/h 65% 0.0 mm FEW
10:30 10.0 °C 3.7 °C 1016.5 hPa SSW 12.9 km/h 19.3 km/h 65% 0.0 mm FEW
10:35 10.1 °C 3.6 °C 1016.6 hPa SSW 13.7 km/h 20.4 km/h 64% 0.0 mm FEW
10:40 10.2 °C 3.7 °C 1016.6 hPa SW 13.7 km/h 18.5 km/h 64% 0.0 mm FEW
10:45 10.3 °C 3.8 °C 1016.6 hPa South 13.7 km/h 18.5 km/h 64% 0.0 mm FEW
10:50 10.4 °C 3.9 °C 1016.7 hPa SSW 12.2 km/h 18.5 km/h 64% 0.0 mm SCT
10:55 10.6 °C 4.1 °C 1016.7 hPa SW 12.2 km/h 14.8 km/h 64% 0.0 mm SCT
11:00 10.7 °C 4.2 °C 1016.7 hPa SSW 11.3 km/h 19.3 km/h 64% 0.0 mm SCT
11:05 10.8 °C 4.1 °C 1016.7 hPa SSW 11.9 km/h 14.8 km/h 63% 0.0 mm SCT
11:10 10.9 °C 3.9 °C 1016.7 hPa SSW 11.9 km/h 16.7 km/h 62% 0.0 mm SCT
11:15 11.1 °C 4.1 °C 1016.7 hPa SSW 11.9 km/h 17.2 km/h 62% 0.0 mm SCT
11:20 11.2 °C 4.2 °C 1016.6 hPa SSW 12.9 km/h 22.5 km/h 62% 0.0 mm CLR
11:25 11.3 °C 4.1 °C 1016.6 hPa SW 12.2 km/h 20.9 km/h 61% 0.0 mm CLR
11:30 11.5 °C 4.2 °C 1016.6 hPa SW 11.9 km/h 11.1 km/h 61% 0.0 mm CLR
11:35 11.7 °C 4.4 °C 1016.6 hPa South 11.9 km/h 18.5 km/h 61% 0.0 mm CLR
11:40 11.7 °C 4.2 °C 1016.6 hPa SW 11.3 km/h 20.9 km/h 60% 0.0 mm CLR
11:45 11.9 °C 4.4 °C 1016.6 hPa SSW 11.1 km/h 14.8 km/h 60% 0.0 mm CLR
11:50 12.1 °C 4.3 °C 1016.6 hPa SW 9.5 km/h 16.7 km/h 59% 0.0 mm CLR
11:55 12.2 °C 4.2 °C 1016.6 hPa SW 9.5 km/h 16.7 km/h 58% 0.0 mm CLR
12:00 12.3 °C 4.0 °C 1016.6 hPa SW 11.3 km/h 24.1 km/h 57% 0.0 mm CLR
12:05 12.4 °C 3.6 °C 1016.5 hPa WSW 11.1 km/h 16.7 km/h 55% 0.0 mm CLR
12:10 12.6 °C 3.8 °C 1016.5 hPa WSW 11.9 km/h 20.4 km/h 55% 0.0 mm CLR
12:15 12.7 °C 3.3 °C 1016.5 hPa SW 11.9 km/h 25.9 km/h 53% 0.0 mm CLR
12:20 12.8 °C 3.4 °C 1016.4 hPa SW 12.2 km/h 18.5 km/h 53% 0.0 mm CLR
12:25 13.0 °C 3.4 °C 1016.4 hPa SW 12.2 km/h 25.1 km/h 52% 0.0 mm CLR
12:30 13.1 °C 3.4 °C 1016.4 hPa WSW 12.2 km/h 16.7 km/h 52% 0.0 mm CLR
12:35 13.3 °C 3.4 °C 1016.2 hPa WSW 12.2 km/h 11.1 km/h 51% 0.0 mm CLR
12:40 13.4 °C 3.4 °C 1016.2 hPa WSW 10.0 km/h 18.5 km/h 51% 0.0 mm CLR
12:45 13.6 °C 3.4 °C 1016.2 hPa West 9.7 km/h 20.9 km/h 50% 0.0 mm CLR
12:50 13.6 °C 3.1 °C 1016.0 hPa West 13.7 km/h 24.1 km/h 49% 0.0 mm BKN
12:55 13.6 °C 3.4 °C 1016.0 hPa West 13.7 km/h 25.1 km/h 50% 0.0 mm BKN
13:00 13.6 °C 3.1 °C 1016.0 hPa WSW 14.5 km/h 29.0 km/h 49% 0.0 mm BKN
13:05 13.5 °C 3.3 °C 1015.7 hPa WSW 14.8 km/h 18.5 km/h 50% 0.0 mm BKN
13:10 13.5 °C 3.0 °C 1015.7 hPa WSW 14.8 km/h 24.1 km/h 49% 0.0 mm BKN
13:15 13.4 °C 3.2 °C 1015.7 hPa WSW 14.8 km/h 20.4 km/h 50% 0.0 mm BKN
13:20 13.6 °C 3.4 °C 1015.5 hPa SW 15.6 km/h 18.5 km/h 50% 0.0 mm BKN
13:25 13.6 °C 3.1 °C 1015.5 hPa West 15.6 km/h 22.2 km/h 49% 0.0 mm BKN
13:30 13.7 °C 3.2 °C 1015.5 hPa WSW 14.5 km/h 24.1 km/h 49% 0.0 mm BKN
13:35 13.7 °C 3.2 °C 1015.4 hPa WSW 14.0 km/h 20.4 km/h 49% 0.0 mm BKN
13:40 13.8 °C 3.3 °C 1015.4 hPa SW 13.7 km/h 13.0 km/h 49% 0.0 mm BKN
13:45 13.9 °C 3.1 °C 1015.4 hPa WSW 13.7 km/h 22.2 km/h 48% 0.0 mm BKN
13:50 13.9 °C 2.8 °C 1015.2 hPa WSW 12.9 km/h 27.4 km/h 47% 0.0 mm BKN
13:55 14.0 °C 3.2 °C 1015.2 hPa West 12.2 km/h 18.5 km/h 48% 0.0 mm BKN
14:00 14.1 °C 2.9 °C 1015.2 hPa West 12.9 km/h 20.9 km/h 47% 0.0 mm BKN
14:05 14.1 °C 2.9 °C 1014.9 hPa WSW 12.2 km/h 14.8 km/h 47% 0.0 mm BKN
14:10 14.1 °C 2.9 °C 1014.9 hPa WSW 12.9 km/h 27.4 km/h 47% 0.0 mm BKN
14:15 14.1 °C 2.9 °C 1014.9 hPa WNW 12.2 km/h 11.1 km/h 47% 0.0 mm BKN
14:20 14.2 °C 3.0 °C 1014.8 hPa WSW 8.0 km/h 19.3 km/h 47% 0.0 mm FEW
14:25 14.2 °C 3.3 °C 1014.8 hPa SSW 8.4 km/h 16.7 km/h 48% 0.0 mm FEW
14:30 14.3 °C 3.4 °C 1014.8 hPa SW 8.7 km/h 18.5 km/h 48% 0.0 mm FEW
14:35 14.2 °C 3.3 °C 1014.6 hPa SW 8.7 km/h 11.1 km/h 48% 0.0 mm FEW
14:40 14.2 °C 3.6 °C 1014.6 hPa SSW 9.7 km/h 14.5 km/h 49% 0.0 mm FEW
14:45 14.2 °C 3.6 °C 1014.6 hPa South 8.7 km/h 14.8 km/h 49% 0.0 mm FEW
14:50 14.2 °C 3.6 °C 1014.4 hPa WSW 7.6 km/h 16.7 km/h 49% 0.0 mm CLR
14:55 14.3 °C 3.7 °C 1014.4 hPa WSW 7.6 km/h 13.0 km/h 49% 0.0 mm CLR
15:00 14.2 °C 3.6 °C 1014.4 hPa SW 8.0 km/h 14.5 km/h 49% 0.0 mm CLR
15:05 14.3 °C 3.4 °C 1014.5 hPa West 7.6 km/h 11.1 km/h 48% 0.0 mm CLR
15:10 14.3 °C 3.7 °C 1014.5 hPa SSW 7.6 km/h 16.7 km/h 49% 0.0 mm CLR
15:15 14.3 °C 3.7 °C 1014.5 hPa WSW 7.6 km/h 14.8 km/h 49% 0.0 mm CLR
15:20 14.2 °C 3.6 °C 1014.4 hPa SSW 10.3 km/h 14.8 km/h 49% 0.0 mm CLR
15:25 14.2 °C 3.6 °C 1014.4 hPa SW 10.3 km/h 14.8 km/h 49% 0.0 mm CLR
15:30 14.3 °C 3.7 °C 1014.4 hPa SSW 10.0 km/h 13.0 km/h 49% 0.0 mm CLR
15:35 14.3 °C 3.7 °C 1014.3 hPa SSW 10.0 km/h 14.8 km/h 49% 0.0 mm CLR
15:40 14.4 °C 3.8 °C 1014.3 hPa SW 10.0 km/h 14.8 km/h 49% 0.0 mm CLR
15:45 14.7 °C 3.8 °C 1014.3 hPa SW 10.0 km/h 13.0 km/h 48% 0.0 mm CLR
15:50 14.7 °C 3.5 °C 1014.3 hPa SW 9.5 km/h 14.8 km/h 47% 0.0 mm CLR
15:55 14.6 °C 3.4 °C 1014.3 hPa SW 9.5 km/h 13.0 km/h 47% 0.0 mm CLR
16:00 14.6 °C 3.7 °C 1014.3 hPa SSW 9.7 km/h 16.1 km/h 48% 0.0 mm CLR
16:05 14.6 °C 3.7 °C 1014.3 hPa SW 10.0 km/h 11.9 km/h 48% 0.0 mm FEW
16:10 14.5 °C 3.9 °C 1014.3 hPa SSW 8.7 km/h 11.1 km/h 49% 0.0 mm FEW
16:15 14.4 °C 3.8 °C 1014.3 hPa SSW 8.7 km/h 13.0 km/h 49% 0.0 mm FEW
16:20 14.4 °C 3.8 °C 1014.3 hPa SW 8.4 km/h 11.1 km/h 49% 0.0 mm FEW
16:25 14.4 °C 4.1 °C 1014.3 hPa SSW 8.4 km/h 9.3 km/h 50% 0.0 mm FEW
16:30 14.4 °C 3.8 °C 1014.3 hPa SSW 7.6 km/h 13.0 km/h 49% 0.0 mm FEW
16:35 14.4 °C 4.1 °C 1014.4 hPa SSE 7.6 km/h 11.1 km/h 50% 0.0 mm FEW
16:40 14.5 °C 3.9 °C 1014.4 hPa SSW 8.7 km/h 11.1 km/h 49% 0.0 mm FEW
16:45 14.5 °C 3.9 °C 1014.4 hPa South 8.7 km/h 13.0 km/h 49% 0.0 mm FEW
16:50 14.5 °C 3.9 °C 1014.4 hPa SSW 8.4 km/h 13.0 km/h 49% 0.0 mm FEW
16:55 14.5 °C 3.9 °C 1014.4 hPa South 8.4 km/h 16.7 km/h 49% 0.0 mm FEW
17:00 14.5 °C 3.9 °C 1014.4 hPa SSW 9.7 km/h 11.3 km/h 49% 0.0 mm FEW
17:05 14.4 °C 3.5 °C 1014.4 hPa SSW 10.0 km/h 13.0 km/h 48% 0.0 mm FEW
17:10 14.4 °C 3.5 °C 1014.4 hPa SW 8.4 km/h 16.1 km/h 48% 0.0 mm FEW
17:15 14.4 °C 3.5 °C 1014.4 hPa SSW 8.4 km/h 14.8 km/h 48% 0.0 mm FEW
17:20 14.3 °C 3.4 °C 1014.5 hPa SSW 10.0 km/h 11.1 km/h 48% 0.0 mm FEW
17:25 14.3 °C 3.4 °C 1014.5 hPa SW 10.0 km/h 9.3 km/h 48% 0.0 mm FEW
17:30 14.3 °C 3.4 °C 1014.5 hPa SSW 8.0 km/h 14.5 km/h 48% 0.0 mm FEW
17:35 14.2 °C 3.6 °C 1014.4 hPa SSW 8.4 km/h 9.3 km/h 49% 0.0 mm FEW
17:40 14.2 °C 3.6 °C 1014.4 hPa SW 6.9 km/h 9.3 km/h 49% 0.0 mm FEW
17:45 14.1 °C 3.6 °C 1014.4 hPa SSW 6.9 km/h 10.0 km/h 49% 0.0 mm FEW
17:50 14.0 °C 3.7 °C 1014.5 hPa SW 6.4 km/h 7.4 km/h 50% 0.0 mm FEW
17:55 13.9 °C 3.9 °C 1014.5 hPa SSW 6.4 km/h 13.0 km/h 51% 0.0 mm FEW
18:00 13.8 °C 3.8 °C 1014.5 hPa SW 8.0 km/h 12.9 km/h 51% 0.0 mm FEW
18:05 13.7 °C 3.7 °C 1014.6 hPa SW 6.9 km/h 11.1 km/h 51% 0.0 mm FEW
18:10 13.7 °C 4.0 °C 1014.6 hPa SSW 6.9 km/h 11.1 km/h 52% 0.0 mm FEW
18:15 13.6 °C 3.9 °C 1014.6 hPa SW 6.9 km/h 9.5 km/h 52% 0.0 mm FEW
18:20 13.6 °C 3.9 °C 1014.9 hPa SSW 6.9 km/h 7.4 km/h 52% 0.0 mm FEW
18:25 13.5 °C 3.8 °C 1014.9 hPa SSW 6.9 km/h 9.3 km/h 52% 0.0 mm FEW
18:30 13.4 °C 4.0 °C 1014.9 hPa SSW 5.8 km/h 7.4 km/h 53% 0.0 mm FEW
18:35 13.4 °C 4.0 °C 1014.9 hPa SSW 5.8 km/h 5.6 km/h 53% 0.0 mm FEW
18:40 13.3 °C 4.2 °C 1014.9 hPa SSW 4.7 km/h 5.8 km/h 54% 0.0 mm FEW
18:45 13.2 °C 4.1 °C 1014.9 hPa SSW 4.7 km/h 7.4 km/h 54% 0.0 mm FEW
18:50 13.2 °C 4.3 °C 1015.0 hPa SSW 4.7 km/h 5.6 km/h 55% 0.0 mm SCT
18:55 13.1 °C 4.3 °C 1015.0 hPa SSW 4.7 km/h 5.6 km/h 55% 0.0 mm SCT
19:00 13.0 °C 4.2 °C 1015.0 hPa SSW 3.2 km/h 6.4 km/h 55% 0.0 mm SCT
19:05 12.9 °C 4.3 °C 1015.3 hPa SSW 3.2 km/h   56% 0.0 mm SCT
19:10 12.8 °C 4.2 °C 1015.3 hPa Calm     56% 0.0 mm SCT
19:15 12.7 °C 4.4 °C 1015.3 hPa Calm   6.4 km/h 57% 0.0 mm SCT
19:20 12.7 °C 4.4 °C 1015.4 hPa SSW 2.3 km/h 5.6 km/h 57% 0.0 mm FEW
19:25 12.6 °C 4.3 °C 1015.4 hPa SSW 2.3 km/h 2.3 km/h 57% 0.0 mm FEW
19:30 12.4 °C 4.3 °C 1015.4 hPa SSW 2.9 km/h 4.7 km/h 58% 0.0 mm FEW
19:35 12.3 °C 4.3 °C 1015.5 hPa SSW 2.9 km/h 3.7 km/h 58% 0.0 mm FEW
19:40 12.2 °C 4.4 °C 1015.5 hPa SSW 2.9 km/h 3.9 km/h 59% 0.0 mm FEW
19:45 12.2 °C 4.4 °C 1015.5 hPa SSW 2.9 km/h 3.7 km/h 59% 0.0 mm FEW
19:50 12.1 °C 4.3 °C 1015.7 hPa SSW 2.9 km/h 3.7 km/h 59% 0.0 mm FEW
19:55 12.1 °C 4.3 °C 1015.7 hPa SSW 2.9 km/h 3.9 km/h 59% 0.0 mm FEW
20:00 12.1 °C 4.6 °C 1015.7 hPa SSW 3.2 km/h 4.8 km/h 60% 0.0 mm FEW
20:05 12.1 °C 4.6 °C 1015.8 hPa SSW 2.9 km/h 3.7 km/h 60% 0.0 mm FEW
20:10 12.1 °C 4.6 °C 1015.8 hPa SSW 2.3 km/h   60% 0.0 mm FEW
20:15 12.0 °C 4.4 °C 1015.8 hPa SSW 2.3 km/h 7.4 km/h 60% 0.0 mm FEW
20:20 11.9 °C 4.6 °C 1015.9 hPa SSE 2.9 km/h 11.1 km/h 61% 0.0 mm BKN
20:25 11.6 °C 4.3 °C 1015.9 hPa South 2.9 km/h 11.1 km/h 61% 0.0 mm BKN
20:30 11.4 °C 4.4 °C 1015.9 hPa SSE 6.9 km/h 9.3 km/h 62% 0.0 mm BKN
20:35 11.3 °C 4.3 °C 1016.1 hPa SSE 6.9 km/h 9.3 km/h 62% 0.0 mm BKN
20:40 11.2 °C 4.4 °C 1016.1 hPa SSE 5.8 km/h 7.6 km/h 63% 0.0 mm BKN
20:45 11.1 °C 4.3 °C 1016.1 hPa SSE 5.8 km/h 7.4 km/h 63% 0.0 mm BKN
20:50 11.1 °C 4.3 °C 1016.1 hPa SSE 5.8 km/h 5.6 km/h 63% 0.0 mm OVC
20:55 11.2 °C 4.4 °C 1016.1 hPa SSE 5.8 km/h 5.6 km/h 63% 0.0 mm OVC
21:00 11.2 °C 4.4 °C 1016.1 hPa SSE 3.2 km/h 6.4 km/h 63% 0.0 mm OVC
21:05 11.2 °C 4.4 °C 1016.3 hPa SSE 3.9 km/h 3.7 km/h 63% 0.0 mm OVC
21:10 11.3 °C 4.5 °C 1016.3 hPa SSE 2.9 km/h   63% 0.0 mm OVC
21:15 11.2 °C 4.4 °C 1016.3 hPa SSE 2.9 km/h   63% 0.0 mm OVC
21:20 11.2 °C 4.6 °C 1016.5 hPa Calm   1.9 km/h 64% 0.0 mm CLR
21:25 11.2 °C 4.4 °C 1016.5 hPa Calm     63% 0.0 mm CLR
21:30 11.1 °C 4.3 °C 1016.5 hPa SSE 2.3 km/h 5.6 km/h 63% 0.0 mm CLR
21:35 11.2 °C 4.2 °C 1016.7 hPa SSE 2.3 km/h 7.4 km/h 62% 0.0 mm CLR
21:40 11.2 °C 3.7 °C 1016.7 hPa South 4.7 km/h 5.8 km/h 60% 0.0 mm CLR
21:45 11.3 °C 3.6 °C 1016.7 hPa SSW 4.7 km/h 9.3 km/h 59% 0.0 mm CLR
21:50 11.3 °C 3.6 °C 1016.7 hPa SSW 5.8 km/h 9.3 km/h 59% 0.0 mm CLR
21:55 11.4 °C 3.4 °C 1016.7 hPa SW 5.8 km/h 7.4 km/h 58% 0.0 mm CLR
22:00 11.5 °C 3.5 °C 1016.7 hPa SW 4.8 km/h 9.7 km/h 58% 0.0 mm CLR
22:05 11.6 °C 3.6 °C 1016.9 hPa SSW 5.8 km/h 10.3 km/h 58% 0.0 mm CLR
22:10 11.5 °C 3.5 °C 1016.9 hPa SW 6.9 km/h 11.1 km/h 58% 0.0 mm CLR
22:15 11.6 °C 3.6 °C 1016.9 hPa SSW 6.9 km/h 7.4 km/h 58% 0.0 mm CLR
22:20 11.6 °C 3.6 °C 1017.1 hPa SSW 6.9 km/h 11.1 km/h 58% 0.0 mm CLR
22:25 11.6 °C 3.6 °C 1017.1 hPa SW 6.9 km/h 7.6 km/h 58% 0.0 mm CLR
22:30 11.6 °C 3.6 °C 1017.1 hPa SW 6.4 km/h 7.4 km/h 58% 0.0 mm CLR
22:35 11.6 °C 3.4 °C 1017.3 hPa WSW 6.4 km/h 7.4 km/h 57% 0.0 mm CLR
22:40 11.6 °C 3.4 °C 1017.3 hPa WNW 4.7 km/h 11.1 km/h 57% 0.0 mm CLR
22:45 11.5 °C 3.3 °C 1017.3 hPa WNW 4.7 km/h 7.4 km/h 57% 0.0 mm CLR
22:50 11.4 °C 3.2 °C 1017.4 hPa West 5.8 km/h 9.3 km/h 57% 0.0 mm CLR
22:55 11.3 °C 3.1 °C 1017.4 hPa WSW 5.8 km/h 7.4 km/h 57% 0.0 mm CLR
23:00 11.2 °C 3.2 °C 1017.4 hPa WSW 4.8 km/h 9.7 km/h 58% 0.0 mm CLR
23:05 11.0 °C 3.1 °C 1017.5 hPa WSW 5.8 km/h 11.1 km/h 58% 0.0 mm CLR
23:10 10.8 °C 2.8 °C 1017.5 hPa WSW 6.4 km/h 14.8 km/h 58% 0.0 mm CLR
23:15 10.7 °C 3.0 °C 1017.5 hPa West 6.4 km/h 9.5 km/h 59% 0.0 mm CLR
23:20 10.6 °C 2.9 °C 1017.6 hPa WSW 8.4 km/h 11.1 km/h 59% 0.0 mm OVC
23:25 10.6 °C 3.2 °C 1017.6 hPa WSW 8.4 km/h 7.4 km/h 60% 0.0 mm OVC
23:30 10.5 °C 3.1 °C 1017.6 hPa WSW 5.0 km/h 7.4 km/h 60% 0.0 mm OVC
23:35 10.5 °C 3.1 °C 1017.7 hPa WSW 5.0 km/h 7.4 km/h 60% 0.0 mm OVC
23:40 10.4 °C 2.9 °C 1017.7 hPa WSW 3.2 km/h 8.0 km/h 60% 0.0 mm OVC
23:45 10.4 °C 3.2 °C 1017.7 hPa WSW 4.7 km/h 7.4 km/h 61% 0.0 mm OVC
23:50 10.1 °C 3.2 °C 1017.7 hPa SSE 3.9 km/h 9.3 km/h 62% 0.0 mm CLR
23:55 9.8 °C 3.1 °C 1017.7 hPa South 3.9 km/h 9.3 km/h 63% 0.0 mm CLR
Murcia-Puente Tocinos, España
Compliments of Weather Underground - 2.75 mb

La estación de MeteoMurcia.com, publica sus datos en los siguientes proyectos:

Weather Underground PWS IMURCIAP2 Meteoclimatic www.awekas.at

W3Counter
Web Analytics